Observation data for O'Donnell on 07/17/2019      Previous  Date  Next       Current Mesonet Observations  Soil Data  Daily Summary Page  Observations in Plain Language
KOES 170500Z 14007KT 28/13 A3003 RMK A01 T02840128  RH  040%=      5-min Rain = 0
KOES 170505Z 14007KT 28/13 A3003 RMK A01 T02830128  RH  040%=      5-min Rain = 0
KOES 170510Z 14007KT 28/13 A3002 RMK A01 T02810128  RH  040%=      5-min Rain = 0
KOES 170515Z 14007KT 28/13 A3003 RMK A01 T02810128  RH  041%=      5-min Rain = 0
KOES 170520Z 14006KT 28/13 A3002 RMK A01 T02810128  RH  041%=      5-min Rain = 0
KOES 170525Z 14007KT 28/13 A3002 RMK A01 T02800129  RH  041%=      5-min Rain = 0
KOES 170530Z 14006KT 28/13 A3002 RMK A01 T02800129  RH  041%=      5-min Rain = 0
KOES 170535Z 14006KT 28/13 A3002 RMK A01 T02780129  RH  041%=      5-min Rain = 0
KOES 170540Z 14007KT 28/13 A3002 RMK A01 T02770130  RH  042%=      5-min Rain = 0
KOES 170545Z 14006KT 28/13 A3002 RMK A01 T02770130  RH  042%=      5-min Rain = 0
KOES 170550Z 14006KT 28/13 A3002 RMK A01 T02760130  RH  042%=      5-min Rain = 0
KOES 170555Z 14006KT 28/13 A3002 RMK A01 T02750131  RH  043%=      5-min Rain = 0
KOES 170600Z 15007KT 27/13 A3002 RMK A01 T02740131  RH  043%=      5-min Rain = 0
KOES 170605Z 15007KT 27/13 A3002 RMK A01 T02740131  RH  043%=      5-min Rain = 0
KOES 170610Z 15007KT 28/13 A3002 RMK A01 T02750132  RH  043%=      5-min Rain = 0
KOES 170615Z 15007KT 28/13 A3002 RMK A01 T02750132  RH  043%=      5-min Rain = 0
KOES 170620Z 15008KT 28/13 A3002 RMK A01 T02750132  RH  043%=      5-min Rain = 0
KOES 170625Z 15008G13KT 28/13 A3002 RMK A01 T02750132  RH  043%=      5-min Rain = 0
KOES 170630Z 16008KT 28/13 A3002 RMK A01 T02750133  RH  043%=      5-min Rain = 0
KOES 170635Z 16009KT 27/13 A3002 RMK A01 T02740133  RH  043%=      5-min Rain = 0
KOES 170640Z 16007KT 27/13 A3002 RMK A01 T02730133  RH  044%=      5-min Rain = 0
KOES 170645Z 16008KT 27/13 A3002 RMK A01 T02700134  RH  045%=      5-min Rain = 0
KOES 170650Z 16007KT 27/14 A3002 RMK A01 T02690135  RH  045%=      5-min Rain = 0
KOES 170655Z 16007KT 27/14 A3002 RMK A01 T02680136  RH  046%=      5-min Rain = 0
KOES 170700Z 16007KT 27/14 A3002 RMK A01 T02660137  RH  047%=      5-min Rain = 0
KOES 170705Z 16007KT 27/14 A3002 RMK A01 T02660138  RH  047%=      5-min Rain = 0
KOES 170710Z 16007KT 27/14 A3002 RMK A01 T02650139  RH  048%=      5-min Rain = 0
KOES 170715Z 16008KT 27/14 A3002 RMK A01 T02660141  RH  048%=      5-min Rain = 0
KOES 170720Z 17008KT 27/14 A3002 RMK A01 T02660142  RH  049%=      5-min Rain = 0
KOES 170725Z 17008KT 27/14 A3002 RMK A01 T02660144  RH  049%=      5-min Rain = 0
KOES 170730Z 17008KT 27/15 A3002 RMK A01 T02660146  RH  050%=      5-min Rain = 0
KOES 170735Z 17008KT 27/15 A3002 RMK A01 T02660148  RH  050%=      5-min Rain = 0
KOES 170740Z 17009KT 27/15 A3002 RMK A01 T02670149  RH  051%=      5-min Rain = 0
KOES 170745Z 17008G13KT 27/15 A3002 RMK A01 T02680150  RH  051%=      5-min Rain = 0
KOES 170750Z 17009KT 27/15 A3002 RMK A01 T02670151  RH  051%=      5-min Rain = 0
KOES 170755Z 17010KT 27/15 A3002 RMK A01 T02670152  RH  051%=      5-min Rain = 0
KOES 170800Z 17009G14KT 27/15 A3001 RMK A01 T02670153  RH  052%=      5-min Rain = 0
KOES 170805Z 17010G15KT 27/15 A3001 RMK A01 T02660154  RH  052%=      5-min Rain = 0
KOES 170810Z 17009KT 27/16 A3001 RMK A01 T02660155  RH  053%=      5-min Rain = 0
KOES 170815Z 18009KT 27/16 A3001 RMK A01 T02650156  RH  054%=      5-min Rain = 0
KOES 170820Z 18010G15KT 27/16 A3001 RMK A01 T02650156  RH  054%=      5-min Rain = 0
KOES 170825Z 18009KT 26/16 A3001 RMK A01 T02640157  RH  054%=      5-min Rain = 0
KOES 170830Z 18010KT 26/16 A3001 RMK A01 T02630158  RH  055%=      5-min Rain = 0
KOES 170835Z 18009KT 26/16 A3001 RMK A01 T02630159  RH  055%=      5-min Rain = 0
KOES 170840Z 18010KT 26/16 A3002 RMK A01 T02620160  RH  056%=      5-min Rain = 0
KOES 170845Z 18008G13KT 26/16 A3002 RMK A01 T02620160  RH  056%=      5-min Rain = 0
KOES 170850Z 18010KT 26/16 A3002 RMK A01 T02620161  RH  057%=      5-min Rain = 0
KOES 170855Z 18009KT 26/16 A3002 RMK A01 T02620162  RH  057%=      5-min Rain = 0
KOES 170900Z 17010KT 26/16 A3002 RMK A01 T02620162  RH  057%=      5-min Rain = 0
KOES 170905Z 17010KT 26/16 A3002 RMK A01 T02620162  RH  057%=      5-min Rain = 0
KOES 170910Z 17010G16KT 26/16 A3002 RMK A01 T02610162  RH  057%=      5-min Rain = 0
KOES 170915Z 17009G14KT 26/16 A3002 RMK A01 T02600162  RH  057%=      5-min Rain = 0
KOES 170920Z 17010KT 26/16 A3002 RMK A01 T02600162  RH  057%=      5-min Rain = 0
KOES 170925Z 17011KT 26/16 A3002 RMK A01 T02600161  RH  057%=      5-min Rain = 0
KOES 170930Z 17010G15KT 26/16 A3002 RMK A01 T02600161  RH  057%=      5-min Rain = 0
KOES 170935Z 17009KT 26/16 A3002 RMK A01 T02590161  RH  057%=      5-min Rain = 0
KOES 170940Z 17010KT 26/16 A3001 RMK A01 T02580161  RH  057%=      5-min Rain = 0
KOES 170945Z 16010G15KT 26/16 A3001 RMK A01 T02580160  RH  057%=      5-min Rain = 0
KOES 170950Z 17010KT 26/16 A3001 RMK A01 T02580160  RH  058%=      5-min Rain = 0
KOES 170955Z 17012G17KT 26/16 A3001 RMK A01 T02570161  RH  058%=      5-min Rain = 0
KOES 171000Z 17011G17KT 26/16 A3001 RMK A01 T02570160  RH  058%=      5-min Rain = 0
KOES 171005Z 16012G18KT 26/16 A3001 RMK A01 T02570160  RH  058%=      5-min Rain = 0
KOES 171010Z 16011G17KT 26/16 A3001 RMK A01 T02560161  RH  058%=      5-min Rain = 0
KOES 171015Z 17012G17KT 26/16 A3001 RMK A01 T02550161  RH  059%=      5-min Rain = 0
KOES 171020Z 16012G18KT 25/16 A3001 RMK A01 T02540161  RH  059%=      5-min Rain = 0
KOES 171025Z 16011G17KT 25/16 A3001 RMK A01 T02530161  RH  059%=      5-min Rain = 0
KOES 171030Z 17012KT 25/16 A3001 RMK A01 T02520162  RH  060%=      5-min Rain = 0
KOES 171035Z 17011G17KT 25/16 A3001 RMK A01 T02520162  RH  060%=      5-min Rain = 0
KOES 171040Z 17011G17KT 25/16 A3002 RMK A01 T02510162  RH  061%=      5-min Rain = 0
KOES 171045Z 18010KT 25/16 A3002 RMK A01 T02500163  RH  061%=      5-min Rain = 0
KOES 171050Z 18010G15KT 25/16 A3003 RMK A01 T02500163  RH  062%=      5-min Rain = 0
KOES 171055Z 19009KT 25/16 A3003 RMK A01 T02490163  RH  062%=      5-min Rain = 0
KOES 171100Z 21009KT 25/16 A3004 RMK A01 T02480163  RH  062%=      5-min Rain = 0
KOES 171105Z 22009KT 25/16 A3004 RMK A01 T02460163  RH  063%=      5-min Rain = 0
KOES 171110Z 22009KT 25/16 A3004 RMK A01 T02450164  RH  063%=      5-min Rain = 0
KOES 171115Z 21008KT 24/16 A3004 RMK A01 T02440164  RH  064%=      5-min Rain = 0
KOES 171120Z 21008KT 24/17 A3004 RMK A01 T02420165  RH  065%=      5-min Rain = 0
KOES 171125Z 21007KT 24/17 A3004 RMK A01 T02400165  RH  066%=      5-min Rain = 0
KOES 171130Z 20008KT 24/17 A3004 RMK A01 T02400165  RH  066%=      5-min Rain = 0
KOES 171135Z 20008KT 24/17 A3004 RMK A01 T02410166  RH  066%=      5-min Rain = 0
KOES 171140Z 20008KT 24/17 A3004 RMK A01 T02410166  RH  066%=      5-min Rain = 0
KOES 171145Z 19007KT 24/17 A3004 RMK A01 T02400166  RH  066%=      5-min Rain = 0
KOES 171150Z 19007KT 24/17 A3004 RMK A01 T02400166  RH  066%=      5-min Rain = 0
KOES 171155Z 18006KT 24/17 A3004 RMK A01 T02400166  RH  066%=      5-min Rain = 0
KOES 171200Z 18007KT 24/17 A3004 RMK A01 T02390167  RH  067%=      5-min Rain = 0
KOES 171205Z 19007G12KT 24/17 A3004 RMK A01 T02400167  RH  067%=      5-min Rain = 0
KOES 171210Z 18008KT 24/17 A3004 RMK A01 T02400168  RH  067%=      5-min Rain = 0
KOES 171215Z 18007KT 24/17 A3004 RMK A01 T02400168  RH  067%=      5-min Rain = 0
KOES 171220Z 17007KT 24/17 A3004 RMK A01 T02400168  RH  067%=      5-min Rain = 0
KOES 171225Z 17008KT 24/17 A3004 RMK A01 T02410169  RH  067%=      5-min Rain = 0
KOES 171230Z 17007KT 24/17 A3004 RMK A01 T02410169  RH  068%=      5-min Rain = 0
KOES 171235Z 17007KT 24/17 A3004 RMK A01 T02420170  RH  068%=      5-min Rain = 0
KOES 171240Z 17007KT 24/17 A3004 RMK A01 T02420170  RH  068%=      5-min Rain = 0
KOES 171245Z 18007KT 24/17 A3004 RMK A01 T02410171  RH  068%=      5-min Rain = 0
KOES 171250Z 18008G13KT 24/17 A3004 RMK A01 T02410171  RH  068%=      5-min Rain = 0
KOES 171255Z 17008KT 24/17 A3005 RMK A01 T02420171  RH  068%=      5-min Rain = 0
KOES 171300Z 17009KT 24/17 A3005 RMK A01 T02440172  RH  068%=      5-min Rain = 0
KOES 171305Z 18011KT 25/17 A3004 RMK A01 T02450172  RH  067%=      5-min Rain = 0
KOES 171310Z 17011KT 25/17 A3005 RMK A01 T02460173  RH  067%=      5-min Rain = 0
KOES 171315Z 18009G15KT 25/17 A3005 RMK A01 T02480173  RH  066%=      5-min Rain = 0
KOES 171320Z 18012G17KT 25/17 A3005 RMK A01 T02480173  RH  066%=      5-min Rain = 0
KOES 171325Z 17012KT 25/17 A3006 RMK A01 T02470173  RH  067%=      5-min Rain = 0
KOES 171330Z 18010G17KT 25/17 A3006 RMK A01 T02480173  RH  066%=      5-min Rain = 0
KOES 171335Z 19012KT 25/17 A3006 RMK A01 T02500173  RH  066%=      5-min Rain = 0
KOES 171340Z 18012G18KT 25/17 A3006 RMK A01 T02510173  RH  065%=      5-min Rain = 0
KOES 171345Z 19012G18KT 25/17 A3007 RMK A01 T02520173  RH  065%=      5-min Rain = 0
KOES 171350Z 19012G18KT 25/17 A3007 RMK A01 T02540173  RH  064%=      5-min Rain = 0
KOES 171355Z 18010G17KT 26/17 A3007 RMK A01 T02570174  RH  063%=      5-min Rain = 0
KOES 171400Z 18012G17KT 26/17 A3007 RMK A01 T02590173  RH  062%=      5-min Rain = 0
KOES 171405Z 19011KT 26/17 A3007 RMK A01 T02600174  RH  062%=      5-min Rain = 0
KOES 171410Z 19013G18KT 26/17 A3007 RMK A01 T02620173  RH  061%=      5-min Rain = 0
KOES 171415Z 18014G19KT 26/17 A3006 RMK A01 T02630172  RH  060%=      5-min Rain = 0
KOES 171420Z 18014G21KT 26/17 A3007 RMK A01 T02640171  RH  060%=      5-min Rain = 0
KOES 171425Z 18017G22KT 26/17 A3007 RMK A01 T02640170  RH  059%=      5-min Rain = 0
KOES 171430Z 18014G19KT 27/17 A3007 RMK A01 T02670171  RH  058%=      5-min Rain = 0
KOES 171435Z 19015G20KT 27/17 A3007 RMK A01 T02690170  RH  058%=      5-min Rain = 0
KOES 171440Z 19016G23KT 27/17 A3007 RMK A01 T02680170  RH  058%=      5-min Rain = 0
KOES 171445Z 18014G21KT 27/17 A3007 RMK A01 T02700170  RH  057%=      5-min Rain = 0
KOES 171450Z 18014G21KT 27/17 A3007 RMK A01 T02720169  RH  056%=      5-min Rain = 0
KOES 171455Z 19014G19KT 27/17 A3007 RMK A01 T02740169  RH  056%=      5-min Rain = 0
KOES 171500Z 19013G18KT 28/17 A3007 RMK A01 T02770170  RH  055%=      5-min Rain = 0
KOES 171505Z 20015G20KT 28/17 A3007 RMK A01 T02750170  RH  056%=      5-min Rain = 0
KOES 171510Z 19015G20KT 28/17 A3007 RMK A01 T02760168  RH  055%=      5-min Rain = 0
KOES 171515Z 19013G18KT 28/17 A3006 RMK A01 T02800168  RH  053%=      5-min Rain = 0
KOES 171520Z 19014G19KT 28/17 A3007 RMK A01 T02810169  RH  053%=      5-min Rain = 0
KOES 171525Z 18015KT 28/17 A3007 RMK A01 T02830168  RH  052%=      5-min Rain = 0
KOES 171530Z 18013G20KT 29/17 A3007 RMK A01 T02850167  RH  051%=      5-min Rain = 0
KOES 171535Z 18013G18KT 29/17 A3007 RMK A01 T02870166  RH  050%=      5-min Rain = 0
KOES 171540Z 18014G19KT 29/16 A3007 RMK A01 T02900164  RH  049%=      5-min Rain = 0
KOES 171545Z 18013G18KT 29/16 A3007 RMK A01 T02870164  RH  050%=      5-min Rain = 0
KOES 171550Z 18012G17KT 29/16 A3007 RMK A01 T02890164  RH  049%=      5-min Rain = 0
KOES 171555Z 19013KT 29/16 A3006 RMK A01 T02920164  RH  048%=      5-min Rain = 0
KOES 171600Z 19014G19KT 29/16 A3006 RMK A01 T02940163  RH  047%=      5-min Rain = 0
KOES 171605Z 19014KT 30/16 A3006 RMK A01 T02950160  RH  046%=      5-min Rain = 0
KOES 171610Z 19013G18KT 30/16 A3006 RMK A01 T02980159  RH  045%=      5-min Rain = 0
KOES 171615Z 19012G17KT 30/16 A3006 RMK A01 T02990162  RH  046%=      5-min Rain = 0
KOES 171620Z 18012G19KT 30/16 A3006 RMK A01 T03030160  RH  044%=      5-min Rain = 0
KOES 171625Z 17012G19KT 31/16 A3006 RMK A01 T03050157  RH  043%=      5-min Rain = 0
KOES 171630Z 19014G19KT 31/16 A3006 RMK A01 T03050155  RH  042%=      5-min Rain = 0
KOES 171635Z 18013KT 31/16 A3006 RMK A01 T03080156  RH  042%=      5-min Rain = 0
KOES 171640Z 19012G18KT 31/16 A3006 RMK A01 T03090156  RH  042%=      5-min Rain = 0
KOES 171645Z 19012G18KT 31/16 A3006 RMK A01 T03090158  RH  042%=      5-min Rain = 0
KOES 171650Z 20015G22KT 31/15 A3006 RMK A01 T03120154  RH  040%=      5-min Rain = 0
KOES 171655Z 19011G16KT 31/16 A3006 RMK A01 T03130155  RH  040%=      5-min Rain = 0
KOES 171700Z 18012G18KT 32/16 A3007 RMK A01 T03150155  RH  040%=      5-min Rain = 0
KOES 171705Z 18011KT 32/15 A3006 RMK A01 T03160154  RH  039%=      5-min Rain = 0
KOES 171710Z 19010G15KT 32/15 A3006 RMK A01 T03200154  RH  038%=      5-min Rain = 0
KOES 171715Z 19011KT 32/15 A3006 RMK A01 T03210147  RH  037%=      5-min Rain = 0
KOES 171720Z 19011G17KT 32/15 A3006 RMK A01 T03230152  RH  037%=      5-min Rain = 0
KOES 171725Z 19011G16KT 32/15 A3006 RMK A01 T03200153  RH  038%=      5-min Rain = 0
KOES 171730Z 17011G17KT 32/15 A3006 RMK A01 T03220151  RH  037%=      5-min Rain = 0
KOES 171735Z 19011G17KT 33/15 A3006 RMK A01 T03250147  RH  036%=      5-min Rain = 0
KOES 171740Z 20010G15KT 33/14 A3006 RMK A01 T03250143  RH  035%=      5-min Rain = 0
KOES 171745Z 18011G16KT 33/14 A3006 RMK A01 T03280144  RH  034%=      5-min Rain = 0
KOES 171750Z 18010G15KT 33/14 A3006 RMK A01 T03300142  RH  033%=      5-min Rain = 0
KOES 171755Z 17010G15KT 33/14 A3005 RMK A01 T03310139  RH  033%=      5-min Rain = 0
KOES 171800Z 17013G19KT 33/14 A3005 RMK A01 T03310139  RH  033%=      5-min Rain = 0
KOES 171805Z 18012G20KT 33/14 A3005 RMK A01 T03320137  RH  032%=      5-min Rain = 0
KOES 171810Z 19010G17KT 33/14 A3005 RMK A01 T03310137  RH  032%=      5-min Rain = 0
KOES 171815Z 18012G17KT 33/14 A3005 RMK A01 T03330137  RH  032%=      5-min Rain = 0
KOES 171820Z 17012G17KT 34/14 A3005 RMK A01 T03360136  RH  031%=      5-min Rain = 0
KOES 171825Z 17011G18KT 34/14 A3005 RMK A01 T03350137  RH  032%=      5-min Rain = 0
KOES 171830Z 16011G18KT 33/14 A3005 RMK A01 T03340136  RH  031%=      5-min Rain = 0
KOES 171835Z 16010G16KT 34/14 A3004 RMK A01 T03370138  RH  032%=      5-min Rain = 0
KOES 171840Z 18013G18KT 33/14 A3004 RMK A01 T03340135  RH  031%=      5-min Rain = 0
KOES 171845Z 18014G21KT 34/14 A3004 RMK A01 T03350136  RH  031%=      5-min Rain = 0
KOES 171850Z 17013G24KT 34/13 A3004 RMK A01 T03360132  RH  030%=      5-min Rain = 0
KOES 171855Z 17012G19KT 34/13 A3004 RMK A01 T03370130  RH  030%=      5-min Rain = 0
KOES 171900Z 17012G18KT 34/13 A3003 RMK A01 T03400126  RH  029%=      5-min Rain = 0
KOES 171905Z 18012G17KT 34/12 A3003 RMK A01 T03400124  RH  028%=      5-min Rain = 0
KOES 171910Z 17009G15KT 34/13 A3003 RMK A01 T03420126  RH  028%=      5-min Rain = 0
KOES 171915Z 15012G18KT 34/13 A3003 RMK A01 T03430126  RH  028%=      5-min Rain = 0
KOES 171920Z 15012KT 34/12 A3003 RMK A01 T03420118  RH  027%=      5-min Rain = 0
KOES 171925Z 15011G17KT 34/13 A3002 RMK A01 T03410126  RH  028%=      5-min Rain = 0
KOES 171930Z 18012G18KT 35/12 A3002 RMK A01 T03460120  RH  026%=      5-min Rain = 0
KOES 171935Z 20014G21KT 35/12 A3002 RMK A01 T03480120  RH  026%=      5-min Rain = 0
KOES 171940Z 17011G18KT 35/12 A3002 RMK A01 T03480121  RH  026%=      5-min Rain = 0
KOES 171945Z 16009G14KT 35/13 A3001 RMK A01 T03520126  RH  027%=      5-min Rain = 0
KOES 171950Z 17014G22KT 35/12 A3001 RMK A01 T03540124  RH  026%=      5-min Rain = 0
KOES 171955Z 16011G17KT 35/12 A3001 RMK A01 T03460123  RH  027%=      5-min Rain = 0
KOES 172000Z 16011KT 35/12 A30 RMK A01 T03470123  RH  027%=      5-min Rain = 0
KOES 172005Z 15012G18KT 35/12 A30 RMK A01 T03480115  RH  025%=      5-min Rain = 0
KOES 172010Z 18011G16KT 35/12 A30 RMK A01 T03500117  RH  025%=      5-min Rain = 0
KOES 172015Z 14010G16KT 35/12 A30 RMK A01 T03500116  RH  025%=      5-min Rain = 0
KOES 172020Z 15011G18KT 35/11 A30 RMK A01 T03480112  RH  025%=      5-min Rain = 0
KOES 172025Z 17011G18KT 35/11 A30 RMK A01 T03510110  RH  024%=      5-min Rain = 0
KOES 172030Z 18010G19KT 35/11 A2999 RMK A01 T03530111  RH  024%=      5-min Rain = 0
KOES 172035Z 16012G18KT 35/11 A2999 RMK A01 T03520113  RH  024%=      5-min Rain = 0
KOES 172040Z 18013G18KT 35/11 A2999 RMK A01 T03520111  RH  024%=      5-min Rain = 0
KOES 172045Z 16010G17KT 35/11 A2999 RMK A01 T03500111  RH  024%=      5-min Rain = 0
KOES 172050Z 17012G19KT 35/11 A2999 RMK A01 T03510111  RH  024%=      5-min Rain = 0
KOES 172055Z 17009G16KT 35/11 A2999 RMK A01 T03500114  RH  025%=      5-min Rain = 0
KOES 172100Z 16009G14KT 35/11 A2998 RMK A01 T03530108  RH  023%=      5-min Rain = 0
KOES 172105Z 18011G18KT 36/11 A2998 RMK A01 T03550106  RH  023%=      5-min Rain = 0
KOES 172110Z 20013G19KT 35/10 A2998 RMK A01 T03540102  RH  022%=      5-min Rain = 0
KOES 172115Z 18010G15KT 36/10 A2998 RMK A01 T03550102  RH  022%=      5-min Rain = 0
KOES 172120Z 16013G19KT 36/11 A2998 RMK A01 T03550108  RH  023%=      5-min Rain = 0
KOES 172125Z 18009G15KT 36/10 A2998 RMK A01 T03550103  RH  022%=      5-min Rain = 0
KOES 172130Z 18010G19KT 36/10 A2998 RMK A01 T03560104  RH  022%=      5-min Rain = 0
KOES 172135Z 16011G17KT 35/11 A2997 RMK A01 T03540105  RH  023%=      5-min Rain = 0
KOES 172140Z 17010G19KT 36/11 A2997 RMK A01 T03560106  RH  023%=      5-min Rain = 0
KOES 172145Z 18010G18KT 36/11 A2997 RMK A01 T03580105  RH  022%=      5-min Rain = 0
KOES 172150Z 16012G19KT 36/10 A2997 RMK A01 T03590101  RH  022%=      5-min Rain = 0
KOES 172155Z 16011G16KT 36/10 A2997 RMK A01 T03550095  RH  021%=      5-min Rain = 0
KOES 172200Z 16010G15KT 36/09 A2997 RMK A01 T03580092  RH  020%=      5-min Rain = 0
KOES 172205Z 14010G16KT 36/10 A2996 RMK A01 T03550095  RH  021%=      5-min Rain = 0
KOES 172210Z 17010KT 36/10 A2996 RMK A01 T03580098  RH  021%=      5-min Rain = 0
KOES 172215Z 16010G15KT 36/09 A2996 RMK A01 T03600091  RH  020%=      5-min Rain = 0
KOES 172220Z 17010G15KT 36/09 A2996 RMK A01 T03570092  RH  021%=      5-min Rain = 0
KOES 172225Z 15011G17KT 36/09 A2996 RMK A01 T03560093  RH  021%=      5-min Rain = 0
KOES 172230Z 18012G17KT 35/09 A2996 RMK A01 T03540093  RH  021%=      5-min Rain = 0
KOES 172235Z 18010G15KT 35/09 A2996 RMK A01 T03540090  RH  021%=      5-min Rain = 0
KOES 172240Z 16009G14KT 36/09 A2995 RMK A01 T03570091  RH  020%=      5-min Rain = 0
KOES 172245Z 18011G17KT 36/09 A2995 RMK A01 T03560091  RH  020%=      5-min Rain = 0
KOES 172250Z 17011G16KT 35/09 A2995 RMK A01 T03530089  RH  020%=      5-min Rain = 0
KOES 172255Z 18011G18KT 36/08 A2995 RMK A01 T03550084  RH  020%=      5-min Rain = 0
KOES 172300Z 18013G21KT 36/09 A2995 RMK A01 T03550085  RH  020%=      5-min Rain = 0
KOES 172305Z 18011G17KT 36/09 A2995 RMK A01 T03550086  RH  020%=      5-min Rain = 0
KOES 172310Z 18010KT 36/08 A2995 RMK A01 T03560078  RH  019%=      5-min Rain = 0
KOES 172315Z 17009G15KT 36/09 A2995 RMK A01 T03550085  RH  020%=      5-min Rain = 0
KOES 172320Z 17011G16KT 35/09 A2995 RMK A01 T03530091  RH  021%=      5-min Rain = 0
KOES 172325Z 16010G16KT 35/09 A2995 RMK A01 T03530091  RH  021%=      5-min Rain = 0
KOES 172330Z 17010KT 35/09 A2995 RMK A01 T03530087  RH  020%=      5-min Rain = 0
KOES 172335Z 18012G17KT 35/09 A2995 RMK A01 T03530087  RH  020%=      5-min Rain = 0
KOES 172340Z 18011KT 35/09 A2995 RMK A01 T03520091  RH  021%=      5-min Rain = 0
KOES 172345Z 16010G15KT 35/09 A2995 RMK A01 T03520094  RH  021%=      5-min Rain = 0
KOES 172350Z 15010G16KT 35/10 A2994 RMK A01 T03500095  RH  022%=      5-min Rain = 0
KOES 172355Z 16008G13KT 35/10 A2994 RMK A01 T03510099  RH  022%=      5-min Rain = 0
KOES 180000Z 17010G15KT 35/10 A2994 RMK A01 T03500096  RH  022%=      5-min Rain = 0
KOES 180005Z 16010G15KT 35/10 A2994 RMK A01 T03490097  RH  022%=      5-min Rain = 0
KOES 180010Z 18011G17KT 35/10 A2994 RMK A01 T03480095  RH  022%=      5-min Rain = 0
KOES 180015Z 17009KT 35/09 A2994 RMK A01 T03470094  RH  022%=      5-min Rain = 0
KOES 180020Z 15009KT 35/10 A2994 RMK A01 T03460103  RH  023%=      5-min Rain = 0
KOES 180025Z 16010KT 35/11 A2994 RMK A01 T03450110  RH  025%=      5-min Rain = 0
KOES 180030Z 16010G15KT 34/11 A2994 RMK A01 T03430111  RH  025%=      5-min Rain = 0
KOES 180035Z 16011G16KT 34/11 A2994 RMK A01 T03420112  RH  026%=      5-min Rain = 0
KOES 180040Z 15010KT 34/11 A2994 RMK A01 T03410112  RH  026%=      5-min Rain = 0
KOES 180045Z 16010G15KT 34/12 A2994 RMK A01 T03390115  RH  027%=      5-min Rain = 0
KOES 180050Z 16010KT 34/12 A2994 RMK A01 T03380117  RH  027%=      5-min Rain = 0
KOES 180055Z 16012G17KT 34/12 A2994 RMK A01 T03370117  RH  027%=      5-min Rain = 0
KOES 180100Z 16013KT 34/12 A2995 RMK A01 T03350117  RH  028%=      5-min Rain = 0
KOES 180105Z 16011KT 33/12 A2995 RMK A01 T03340118  RH  028%=      5-min Rain = 0
KOES 180110Z 15010G15KT 33/12 A2994 RMK A01 T03320118  RH  028%=      5-min Rain = 0
KOES 180115Z 16009G15KT 33/12 A2994 RMK A01 T03290119  RH  029%=      5-min Rain = 0
KOES 180120Z 16009KT 33/12 A2994 RMK A01 T03270119  RH  029%=      5-min Rain = 0
KOES 180125Z 15011KT 33/12 A2995 RMK A01 T03260118  RH  029%=      5-min Rain = 0
KOES 180130Z 16009G14KT 32/12 A2995 RMK A01 T03240119  RH  030%=      5-min Rain = 0
KOES 180135Z 16010G16KT 32/12 A2995 RMK A01 T03230121  RH  030%=      5-min Rain = 0
KOES 180140Z 16010KT 32/12 A2995 RMK A01 T03220122  RH  031%=      5-min Rain = 0
KOES 180145Z 16009KT 32/12 A2995 RMK A01 T03200122  RH  031%=      5-min Rain = 0
KOES 180150Z 16009KT 32/12 A2995 RMK A01 T03190122  RH  031%=      5-min Rain = 0
KOES 180155Z 16010KT 32/12 A2995 RMK A01 T03180122  RH  031%=      5-min Rain = 0
KOES 180200Z 16009G14KT 32/12 A2995 RMK A01 T03170122  RH  031%=      5-min Rain = 0
KOES 180205Z 15010G17KT 32/12 A2996 RMK A01 T03160124  RH  032%=      5-min Rain = 0
KOES 180210Z 16011G18KT 32/13 A2996 RMK A01 T03150126  RH  033%=      5-min Rain = 0
KOES 180215Z 16011KT 31/13 A2996 RMK A01 T03140127  RH  033%=      5-min Rain = 0
KOES 180220Z 16011KT 31/13 A2996 RMK A01 T03130128  RH  034%=      5-min Rain = 0
KOES 180225Z 16011G19KT 31/13 A2996 RMK A01 T03120128  RH  034%=      5-min Rain = 0
KOES 180230Z 16011G16KT 31/13 A2996 RMK A01 T03110127  RH  034%=      5-min Rain = 0
KOES 180235Z 16012KT 31/13 A2996 RMK A01 T03110126  RH  034%=      5-min Rain = 0
KOES 180240Z 16010G16KT 31/13 A2996 RMK A01 T03100125  RH  034%=      5-min Rain = 0
KOES 180245Z 16010G17KT 31/12 A2997 RMK A01 T03090124  RH  034%=      5-min Rain = 0
KOES 180250Z 16011G18KT 31/12 A2997 RMK A01 T03080123  RH  033%=      5-min Rain = 0
KOES 180255Z 16012G18KT 31/12 A2997 RMK A01 T03070122  RH  033%=      5-min Rain = 0
KOES 180300Z 16011G16KT 31/12 A2997 RMK A01 T03070121  RH  033%=      5-min Rain = 0
KOES 180305Z 16011G17KT 31/12 A2998 RMK A01 T03060121  RH  033%=      5-min Rain = 0
KOES 180310Z 16012G18KT 31/12 A2998 RMK A01 T03050120  RH  033%=      5-min Rain = 0
KOES 180315Z 16012KT 31/12 A2998 RMK A01 T03050120  RH  033%=      5-min Rain = 0
KOES 180320Z 16012G17KT 30/12 A2998 RMK A01 T03040120  RH  033%=      5-min Rain = 0
KOES 180325Z 16011G16KT 30/12 A2998 RMK A01 T03040120  RH  034%=      5-min Rain = 0
KOES 180330Z 16010G15KT 30/12 A2998 RMK A01 T03030121  RH  034%=      5-min Rain = 0
KOES 180335Z 16012G18KT 30/12 A2998 RMK A01 T03030121  RH  034%=      5-min Rain = 0
KOES 180340Z 17012G21KT 30/12 A2998 RMK A01 T03030122  RH  034%=      5-min Rain = 0
KOES 180345Z 17014G22KT 30/13 A2998 RMK A01 T03030125  RH  035%=      5-min Rain = 0
KOES 180350Z 18015G20KT 30/13 A2999 RMK A01 T03020128  RH  036%=      5-min Rain = 0
KOES 180355Z 19013G18KT 30/13 A2999 RMK A01 T02990132  RH  037%=      5-min Rain = 0
KOES 180400Z 20013G18KT 29/14 A2999 RMK A01 T02930135  RH  039%=      5-min Rain = 0
KOES 180405Z 22011KT 29/14 A2999 RMK A01 T02870136  RH  041%=      5-min Rain = 0
KOES 180410Z 22012KT 28/14 A2999 RMK A01 T02800137  RH  043%=      5-min Rain = 0
KOES 180415Z 22011G16KT 28/14 A30 RMK A01 T02760138  RH  044%=      5-min Rain = 0
KOES 180420Z 21010G15KT 27/14 A2999 RMK A01 T02720140  RH  046%=      5-min Rain = 0
KOES 180425Z 20011KT 27/14 A2999 RMK A01 T02690141  RH  047%=      5-min Rain = 0
KOES 180430Z 20010KT 27/14 A2999 RMK A01 T02670143  RH  049%=      5-min Rain = 0
KOES 180435Z 19009KT 27/14 A2999 RMK A01 T02650143  RH  049%=      5-min Rain = 0
KOES 180440Z 18010KT 27/14 A2998 RMK A01 T02650144  RH  049%=      5-min Rain = 0
KOES 180445Z 19007KT 26/15 A2998 RMK A01 T02630145  RH  050%=      5-min Rain = 0
KOES 180450Z 19006KT 26/15 A2999 RMK A01 T02610145  RH  051%=      5-min Rain = 0
KOES 180455Z 19006KT 26/15 A2999 RMK A01 T02600146  RH  052%=      5-min Rain = 0

Page generated in 0.0332 seconds.